createdAt,value
2023-01-11T00:00:26.504Z,3.03
2023-01-11T00:03:32.428Z,2.65
2023-01-11T00:06:37.039Z,2.80
2023-01-11T00:09:41.612Z,2.47
2023-01-11T00:12:46.540Z,2.90
2023-01-11T00:15:51.197Z,2.47
2023-01-11T00:18:56.125Z,2.55
2023-01-11T00:22:00.648Z,2.95
2023-01-11T00:25:07.005Z,2.58
2023-01-11T00:28:11.472Z,2.58
2023-01-11T00:31:16.729Z,2.60
2023-01-11T00:34:21.416Z,2.85
2023-01-11T00:37:25.875Z,3.00
2023-01-11T00:40:30.527Z,2.80
2023-01-11T00:43:53.719Z,2.40
2023-01-11T00:50:21.998Z,3.17
2023-01-11T00:53:26.464Z,2.55
2023-01-11T00:56:31.011Z,2.42
2023-01-11T00:59:36.821Z,2.83
2023-01-11T01:02:43.057Z,2.80
2023-01-11T01:05:47.658Z,3.72
2023-01-11T01:08:52.321Z,2.28
2023-01-11T01:11:56.900Z,2.50
2023-01-11T01:15:01.766Z,3.08
2023-01-11T01:18:06.241Z,3.45
2023-01-11T01:21:11.998Z,3.38
2023-01-11T01:24:16.574Z,3.03
2023-01-11T01:27:21.062Z,3.03
2023-01-11T01:30:25.630Z,3.20
2023-01-11T01:33:30.207Z,3.33
2023-01-11T01:36:35.536Z,3.80
2023-01-11T01:39:40.128Z,3.00
2023-01-11T01:42:44.649Z,3.03
2023-01-11T01:45:52.674Z,2.90
2023-01-11T01:49:00.133Z,4.22
2023-01-11T01:52:04.753Z,3.58
2023-01-11T01:55:13.664Z,3.75
2023-01-11T01:58:22.086Z,3.42
2023-01-11T02:01:45.557Z,2.85
2023-01-11T02:04:51.048Z,3.28
2023-01-11T02:07:58.749Z,3.35
2023-01-11T02:11:04.500Z,3.38
2023-01-11T02:14:14.429Z,2.90
2023-01-11T02:17:18.946Z,4.43
2023-01-11T02:20:38.257Z,3.55
2023-01-11T02:24:10.176Z,2.97
2023-01-11T02:27:43.009Z,4.10
2023-01-11T02:31:01.204Z,3.40
2023-01-11T02:34:21.343Z,3.15
2023-01-11T02:37:46.942Z,3.13
2023-01-11T02:41:00.380Z,4.70
2023-01-11T02:44:31.041Z,3.10
2023-01-11T02:48:00.772Z,3.30
2023-01-11T02:51:12.414Z,3.40
2023-01-11T02:54:20.505Z,4.60
2023-01-11T02:57:27.616Z,3.30
2023-01-11T03:00:32.718Z,3.20
2023-01-11T03:03:37.299Z,3.13
2023-01-11T03:06:41.928Z,3.63
2023-01-11T03:10:04.883Z,3.42
2023-01-11T03:13:25.015Z,3.30
2023-01-11T03:16:48.409Z,4.00
2023-01-11T03:20:06.740Z,3.03
2023-01-11T03:23:36.919Z,3.58
2023-01-11T03:27:08.840Z,3.50
2023-01-11T03:30:26.523Z,3.13
2023-01-11T03:33:45.250Z,3.00
2023-01-11T03:36:51.025Z,3.08
2023-01-11T03:40:19.237Z,3.50
2023-01-11T03:43:25.744Z,3.70
2023-01-11T03:46:39.932Z,3.17
2023-01-11T03:49:58.800Z,3.13
2023-01-11T03:53:07.299Z,3.13
2023-01-11T03:56:15.820Z,3.05
2023-01-11T03:59:22.015Z,3.33
2023-01-11T04:02:33.280Z,3.80
2023-01-11T04:05:39.563Z,3.00
2023-01-11T04:08:44.107Z,3.63
2023-01-11T04:11:48.763Z,3.47
2023-01-11T04:14:53.428Z,3.33
2023-01-11T04:18:04.787Z,2.92
2023-01-11T04:21:09.309Z,3.50
2023-01-11T04:24:15.044Z,3.53
2023-01-11T04:27:19.521Z,4.60
2023-01-11T04:30:24.107Z,3.30
2023-01-11T04:33:28.567Z,4.65
2023-01-11T04:36:33.538Z,3.53
2023-01-11T04:39:38.421Z,3.45
2023-01-11T04:42:42.993Z,2.95
2023-01-11T04:45:49.798Z,3.53
2023-01-11T04:48:56.224Z,3.58
2023-01-11T04:52:00.727Z,3.45
2023-01-11T04:55:05.520Z,3.50
2023-01-11T04:58:10.049Z,3.22
2023-01-11T05:01:17.522Z,3.42
2023-01-11T05:04:25.238Z,3.30
2023-01-11T05:07:30.205Z,3.50
2023-01-11T05:10:34.726Z,3.72
2023-01-11T05:13:41.873Z,4.15
2023-01-11T05:16:46.420Z,2.65
2023-01-11T05:19:51.111Z,2.90
2023-01-11T05:22:55.672Z,2.83
2023-01-11T05:26:00.182Z,3.05
2023-01-11T05:29:07.389Z,3.17
2023-01-11T05:32:12.816Z,3.05
2023-01-11T05:35:17.312Z,3.58
2023-01-11T05:38:23.049Z,3.50
2023-01-11T05:41:28.132Z,2.90
2023-01-11T05:44:51.383Z,3.00
2023-01-11T05:47:55.951Z,3.20
2023-01-11T05:51:01.590Z,2.85
2023-01-11T05:54:09.173Z,3.60
2023-01-11T05:57:13.651Z,3.38
2023-01-11T06:00:18.586Z,3.00
2023-01-11T06:03:25.270Z,3.40
2023-01-11T06:06:32.519Z,3.53
2023-01-11T06:09:37.071Z,3.40
2023-01-11T06:12:41.532Z,3.38
2023-01-11T06:15:46.252Z,2.90
2023-01-11T06:18:52.396Z,4.03
2023-01-11T06:21:56.913Z,3.40
2023-01-11T06:25:01.392Z,3.80
2023-01-11T06:28:06.024Z,3.67
2023-01-11T06:31:10.922Z,3.25
2023-01-11T06:34:15.549Z,3.50
2023-01-11T06:37:20.077Z,3.20
2023-01-11T06:40:24.619Z,2.97
2023-01-11T06:43:30.472Z,3.55
2023-01-11T06:46:35.051Z,3.38
2023-01-11T06:49:39.661Z,4.28
2023-01-11T06:52:51.633Z,5.35
2023-01-11T06:55:58.188Z,3.20
2023-01-11T06:59:02.720Z,3.00
2023-01-11T07:02:10.065Z,4.03
2023-01-11T07:05:17.556Z,5.55
2023-01-11T07:08:26.805Z,3.58
2023-01-11T07:11:32.194Z,3.05
2023-01-11T07:14:38.163Z,5.65
2023-01-11T07:17:42.674Z,4.30
2023-01-11T07:20:47.471Z,5.35
2023-01-11T07:23:52.033Z,4.53
2023-01-11T07:26:59.489Z,14.77
2023-01-11T07:30:04.196Z,5.80
2023-01-11T07:33:10.525Z,4.30
2023-01-11T07:36:15.127Z,4.05
2023-01-11T07:39:19.635Z,4.10
2023-01-11T07:42:42.909Z,5.55
2023-01-11T07:45:49.524Z,4.35
2023-01-11T07:48:54.278Z,3.72
2023-01-11T07:51:58.827Z,5.00
2023-01-11T07:55:03.461Z,6.53
2023-01-11T07:58:13.038Z,4.43
2023-01-11T08:01:17.540Z,4.43
2023-01-11T08:04:23.378Z,4.30
2023-01-11T08:07:28.073Z,3.70
2023-01-11T08:10:33.121Z,5.20
2023-01-11T08:13:56.769Z,16.67
2023-01-11T08:17:01.577Z,5.15
2023-01-11T08:20:06.458Z,4.32
2023-01-11T08:23:11.030Z,3.95
2023-01-11T08:26:17.795Z,4.97
2023-01-11T08:29:23.138Z,3.38
2023-01-11T08:32:28.705Z,3.83
2023-01-11T08:35:38.310Z,3.17
2023-01-11T08:38:43.654Z,3.70
2023-01-11T08:41:48.161Z,4.32
2023-01-11T08:44:55.362Z,3.63
2023-01-11T08:48:00.199Z,3.33
2023-01-11T08:51:04.829Z,3.10
2023-01-11T08:54:14.121Z,3.55
2023-01-11T08:57:18.695Z,3.47
2023-01-11T09:00:25.310Z,3.58
2023-01-11T09:03:30.656Z,3.38
2023-01-11T09:06:35.137Z,3.55
2023-01-11T09:09:39.675Z,3.42
2023-01-11T09:12:46.173Z,3.25
2023-01-11T09:15:54.566Z,3.88
2023-01-11T09:18:59.084Z,3.85
2023-01-11T09:22:03.643Z,3.10
2023-01-11T09:25:08.836Z,3.50
2023-01-11T09:28:13.379Z,3.42
2023-01-11T09:31:19.246Z,3.05
2023-01-11T09:34:25.336Z,2.70
2023-01-11T09:37:30.325Z,3.03
2023-01-11T09:40:55.144Z,3.28
2023-01-11T09:44:16.475Z,2.47
2023-01-11T09:47:25.294Z,4.30
2023-01-11T09:50:33.221Z,3.10
2023-01-11T09:53:38.481Z,3.47
2023-01-11T09:57:02.493Z,3.58
2023-01-11T10:00:22.486Z,3.70
2023-01-11T10:04:00.005Z,4.40
2023-01-11T10:07:07.171Z,3.85
2023-01-11T10:18:34.081Z,2.50
2023-01-11T10:22:27.855Z,2.40
2023-01-11T10:25:44.516Z,2.47
2023-01-11T10:29:16.754Z,2.70
2023-01-11T10:32:42.596Z,2.90
2023-01-11T10:36:18.677Z,2.97
2023-01-11T10:40:19.467Z,2.90
2023-01-11T10:43:26.810Z,2.75
2023-01-11T10:46:33.545Z,2.40
2023-01-11T10:50:19.404Z,2.33
2023-01-11T10:53:38.973Z,2.65
2023-01-11T10:57:17.987Z,2.22
2023-01-11T11:00:36.381Z,1.42
2023-01-11T11:03:43.572Z,1.80
2023-01-11T11:07:12.819Z,2.22
2023-01-11T11:10:23.808Z,1.98
2023-01-11T11:13:47.633Z,2.30
2023-01-11T11:17:12.107Z,2.40
2023-01-11T11:20:32.645Z,2.22
2023-01-11T11:23:38.833Z,1.98
2023-01-11T11:26:48.386Z,1.88
2023-01-11T11:29:55.739Z,1.80
2023-01-11T11:33:08.081Z,2.17
2023-01-11T11:36:14.193Z,1.95
2023-01-11T11:39:31.485Z,2.10
2023-01-11T11:42:36.000Z,1.85
2023-01-11T11:45:54.171Z,1.45
2023-01-11T11:49:16.614Z,2.33
2023-01-11T11:52:21.192Z,1.88
2023-01-11T11:55:30.744Z,2.10
2023-01-11T11:58:41.206Z,2.00
2023-01-11T12:01:48.354Z,2.00
2023-01-11T12:04:53.916Z,2.00
2023-01-11T12:07:59.497Z,2.13
2023-01-11T12:11:07.906Z,1.80
2023-01-11T12:14:24.039Z,1.95
2023-01-11T12:17:28.584Z,1.85
2023-01-11T12:20:39.520Z,1.60
2023-01-11T12:23:44.434Z,1.95
2023-01-11T12:27:05.525Z,2.17
2023-01-11T12:30:21.688Z,1.58
2023-01-11T12:33:48.578Z,1.70
2023-01-11T12:37:25.309Z,2.00
2023-01-11T12:40:37.400Z,2.17
2023-01-11T12:44:02.719Z,2.00
2023-01-11T12:47:21.493Z,1.77
2023-01-11T12:51:05.976Z,1.98
2023-01-11T12:54:45.510Z,2.00
2023-01-11T12:58:09.006Z,1.73
2023-01-11T13:01:27.266Z,2.00
2023-01-11T13:04:33.030Z,2.10
2023-01-11T13:08:17.058Z,2.15
2023-01-11T13:12:00.560Z,2.00
2023-01-11T13:21:52.820Z,1.70
2023-01-11T13:24:59.015Z,2.03
2023-01-11T13:28:27.789Z,1.92
2023-01-11T13:31:35.360Z,1.60
2023-01-11T13:34:48.337Z,2.22
2023-01-11T13:41:30.028Z,1.98
2023-01-11T13:44:42.370Z,1.70
2023-01-11T13:47:55.764Z,2.50
2023-01-11T13:51:09.248Z,2.30
2023-01-11T13:54:22.360Z,2.47
2023-01-11T13:57:56.649Z,2.17
2023-01-11T14:01:11.142Z,2.25
2023-01-11T14:04:16.986Z,2.22
2023-01-11T14:07:27.828Z,2.15
2023-01-11T14:11:10.635Z,1.95
2023-01-11T14:14:52.534Z,2.22
2023-01-11T14:18:33.337Z,1.77
2023-01-11T14:21:50.653Z,1.65
2023-01-11T14:25:05.766Z,1.80
2023-01-11T14:28:25.197Z,1.90
2023-01-11T14:31:29.651Z,1.80
2023-01-11T14:35:17.521Z,2.08
2023-01-11T14:38:27.886Z,2.30
2023-01-11T14:42:03.319Z,2.17
2023-01-11T14:45:13.751Z,2.88
2023-01-11T14:48:36.093Z,3.08
2023-01-11T14:51:43.642Z,2.47
2023-01-11T14:54:52.369Z,2.40
2023-01-11T14:57:56.839Z,2.75
2023-01-11T15:01:05.403Z,2.95
2023-01-11T15:04:21.910Z,2.13
2023-01-11T15:07:29.049Z,1.90
2023-01-11T15:10:34.433Z,2.55
2023-01-11T15:13:49.393Z,2.75
2023-01-11T15:17:18.339Z,2.28
2023-01-11T15:20:24.101Z,12.18
2023-01-11T15:23:36.531Z,4.00
2023-01-11T15:26:49.326Z,5.20
2023-01-11T15:29:56.392Z,5.18
2023-01-11T15:33:21.139Z,3.40
2023-01-11T15:36:25.739Z,3.35
2023-01-11T15:39:54.397Z,2.72
2023-01-11T15:43:23.801Z,2.75
2023-01-11T15:46:54.029Z,2.40
2023-01-11T15:50:40.682Z,2.60
2023-01-11T15:54:00.150Z,2.75
2023-01-11T15:57:05.999Z,3.78
2023-01-11T16:00:41.203Z,4.88
2023-01-11T16:04:01.208Z,3.67
2023-01-11T16:07:33.726Z,5.53
2023-01-11T16:11:09.252Z,6.27
2023-01-11T16:14:32.518Z,5.60
2023-01-11T16:17:40.857Z,4.35
2023-01-11T16:20:58.181Z,4.35
2023-01-11T16:24:14.926Z,4.22
2023-01-11T16:27:26.100Z,5.40
2023-01-11T16:30:30.839Z,4.47
2023-01-11T16:33:35.805Z,4.05
2023-01-11T16:36:41.621Z,3.85
2023-01-11T16:39:49.978Z,4.03
2023-01-11T16:43:05.441Z,4.70
2023-01-11T16:46:30.250Z,5.00
2023-01-11T16:49:34.898Z,5.38
2023-01-11T16:52:46.359Z,5.05
2023-01-11T16:56:05.361Z,5.68
2023-01-11T16:59:16.241Z,6.13
2023-01-11T17:02:30.088Z,5.43
2023-01-11T17:05:34.773Z,4.88
2023-01-11T17:08:44.787Z,5.95
2023-01-11T17:11:52.466Z,5.10
2023-01-11T17:14:58.001Z,4.88
2023-01-11T17:18:04.316Z,5.05
2023-01-11T17:21:19.327Z,4.38
2023-01-11T17:24:26.105Z,5.35
2023-01-11T17:27:35.613Z,5.88
2023-01-11T17:30:44.944Z,5.35
2023-01-11T17:33:59.961Z,5.35
2023-01-11T17:37:10.656Z,4.88
2023-01-11T17:40:23.543Z,4.82
2023-01-11T17:43:48.318Z,4.80
2023-01-11T17:46:52.865Z,6.20
2023-01-11T17:50:01.012Z,5.20
2023-01-11T17:53:22.623Z,5.25
2023-01-11T17:56:34.423Z,5.13
2023-01-11T17:59:39.004Z,5.75
2023-01-11T18:02:43.747Z,5.70
2023-01-11T18:05:48.392Z,5.85
2023-01-11T18:08:54.976Z,5.55
2023-01-11T18:12:18.752Z,5.55
2023-01-11T18:15:30.915Z,5.80
2023-01-11T18:18:47.267Z,6.33
2023-01-11T18:21:53.866Z,6.07
2023-01-11T18:24:59.030Z,6.75
2023-01-11T18:28:19.111Z,6.93
2023-01-11T18:31:23.682Z,7.38
2023-01-11T18:34:28.418Z,6.25
2023-01-11T18:37:32.989Z,7.28
2023-01-11T18:40:37.537Z,7.88
2023-01-11T18:43:42.006Z,7.15
2023-01-11T18:46:46.536Z,7.13
2023-01-11T18:49:52.253Z,7.55
2023-01-11T18:52:57.726Z,7.63
2023-01-11T18:56:02.275Z,9.23
2023-01-11T18:59:06.894Z,8.70
2023-01-11T19:05:30.719Z,8.88
2023-01-11T19:08:35.316Z,9.13
2023-01-11T19:11:39.916Z,9.40
2023-01-11T19:14:44.427Z,9.00
2023-01-11T19:17:49.030Z,9.98
2023-01-11T19:20:54.950Z,9.35
2023-01-11T19:23:59.483Z,9.40
2023-01-11T19:27:04.124Z,10.18
2023-01-11T19:30:09.197Z,10.05
2023-01-11T19:33:13.685Z,10.85
2023-01-11T19:36:18.182Z,10.18
2023-01-11T19:39:22.858Z,9.82
2023-01-11T19:42:27.425Z,15.15
2023-01-11T19:45:31.993Z,22.40
2023-01-11T19:48:38.259Z,14.50
2023-01-11T19:51:42.941Z,10.48
2023-01-11T19:54:48.753Z,10.80
2023-01-11T19:57:53.268Z,10.63
2023-01-11T20:00:57.885Z,12.75
2023-01-11T20:04:02.484Z,10.95
2023-01-11T20:07:08.836Z,12.10
2023-01-11T20:10:13.352Z,11.88
2023-01-11T20:13:17.922Z,12.60
2023-01-11T20:16:23.600Z,12.60
2023-01-11T20:19:28.372Z,12.63
2023-01-11T20:22:33.335Z,11.93
2023-01-11T20:25:39.134Z,12.93
2023-01-11T20:28:51.311Z,12.30
2023-01-11T20:31:58.195Z,11.63
2023-01-11T20:35:08.209Z,12.98
2023-01-11T20:38:12.807Z,12.75
2023-01-11T20:41:38.807Z,12.98
2023-01-11T20:44:43.418Z,12.63
2023-01-11T20:47:47.924Z,12.50
2023-01-11T20:50:54.193Z,13.48
2023-01-11T20:53:58.837Z,12.57
2023-01-11T20:57:05.523Z,11.40
2023-01-11T21:03:14.368Z,11.55
2023-01-11T21:06:18.877Z,14.35
2023-01-11T21:09:23.411Z,12.35
2023-01-11T21:12:27.907Z,13.20
2023-01-11T21:15:32.457Z,13.60
2023-01-11T21:18:37.345Z,11.80
2023-01-11T21:21:42.413Z,11.10
2023-01-11T21:24:48.323Z,11.98
2023-01-11T21:27:52.935Z,11.20
2023-01-11T21:31:02.299Z,11.73
2023-01-11T21:34:07.467Z,12.95
2023-01-11T21:37:11.984Z,12.45
2023-01-11T21:40:16.595Z,13.13
2023-01-11T21:43:21.086Z,13.95
2023-01-11T21:46:27.130Z,13.45
2023-01-11T21:49:32.473Z,13.02
2023-01-11T21:52:37.069Z,13.32
2023-01-11T21:55:41.564Z,12.63
2023-01-11T21:58:46.193Z,12.57
2023-01-11T22:01:51.066Z,11.98
2023-01-11T22:04:57.574Z,12.82
2023-01-11T22:08:02.164Z,11.93
2023-01-11T22:11:07.368Z,10.60
2023-01-11T22:14:12.320Z,11.80
2023-01-11T22:17:16.806Z,11.93
2023-01-11T22:20:21.339Z,12.30
2023-01-11T22:23:25.812Z,11.38
2023-01-11T22:26:33.355Z,12.10
2023-01-11T22:29:37.850Z,10.85
2023-01-11T22:32:43.402Z,12.00
2023-01-11T22:35:55.688Z,10.70
2023-01-11T22:39:00.292Z,11.30
2023-01-11T22:42:05.025Z,11.15
2023-01-11T22:45:10.035Z,10.15
2023-01-11T22:48:14.596Z,10.43
2023-01-11T22:51:25.666Z,10.25
2023-01-11T22:54:30.158Z,10.45
2023-01-11T22:57:34.697Z,9.50
2023-01-11T23:00:39.222Z,9.82
2023-01-11T23:03:47.886Z,10.18
2023-01-11T23:06:52.530Z,10.57
2023-01-11T23:09:57.008Z,9.85
2023-01-11T23:13:20.255Z,9.32
2023-01-11T23:19:31.989Z,9.95
2023-01-11T23:22:36.550Z,9.77
2023-01-11T23:25:41.017Z,10.48
2023-01-11T23:28:46.579Z,9.48
2023-01-11T23:31:51.150Z,10.45
2023-01-11T23:34:55.670Z,10.27
2023-01-11T23:38:00.163Z,9.07
2023-01-11T23:41:28.138Z,9.35
2023-01-11T23:44:34.388Z,9.43
2023-01-11T23:47:38.963Z,8.32
2023-01-11T23:50:43.501Z,7.28
2023-01-11T23:53:48.129Z,7.20
2023-01-11T23:56:52.722Z,7.18
2023-01-11T23:59:57.285Z,7.10
